GLD1705 SNHS-SNKK
Flight info
| Callsign | GLD1705 |
|---|---|
| Flight time | 0h 39m |
| Altitude | 7500 |
| Route | 0715S03742W |
| Aircraft | AEST/L-SDFGIRY/S |
Departure
| Time | 2026-04-21 14:40 |
|---|---|
| Airport | Santa Magalhães Airport (SNHS) |
Arrival
| Time | 2026-04-21 15:20 |
|---|---|
| Airport | Caicó Airport (SNKK) |
| Time | Latitude | Longitude | Altitude | Speed | Heading |
|---|---|---|---|---|---|
| 2026-04-21 14:35 | -8.06145 | -38.32469 | 1553 ft | 0 kts | 284° |
| 2026-04-21 14:38 | -8.06155 | -38.32477 | 1553 ft | 7 kts | 160° |
| 2026-04-21 14:38 | -8.06209 | -38.32434 | 1553 ft | 6 kts | 203° |
| 2026-04-21 14:38 | -8.06210 | -38.32434 | 1553 ft | 0 kts | 204° |
| 2026-04-21 14:39 | -8.06266 | -38.32466 | 1552 ft | 17 kts | 233° |
| 2026-04-21 14:39 | -8.06163 | -38.32808 | 1544 ft | 87 kts | 289° |
| 2026-04-21 14:40 | -8.05943 | -38.33509 | 1622 ft | 119 kts | 283° |
| 2026-04-21 14:40 | -8.05579 | -38.34380 | 1747 ft | 149 kts | 306° |
| 2026-04-21 14:40 | -8.04734 | -38.34949 | 2153 ft | 155 kts | 345° |
| 2026-04-21 14:40 | -8.03590 | -38.34953 | 2293 ft | 173 kts | 16° |
| 2026-04-21 14:41 | -8.02590 | -38.34335 | 2629 ft | 168 kts | 48° |
| 2026-04-21 14:41 | -8.01815 | -38.33482 | 3040 ft | 161 kts | 51° |
| 2026-04-21 14:41 | -8.01074 | -38.32638 | 3362 ft | 164 kts | 52° |
| 2026-04-21 14:41 | -8.00314 | -38.31744 | 3562 ft | 170 kts | 50° |
| 2026-04-21 14:42 | -7.99394 | -38.30962 | 3756 ft | 174 kts | 39° |
| 2026-04-21 14:42 | -7.98428 | -38.30244 | 3974 ft | 173 kts | 40° |
| 2026-04-21 14:42 | -7.97458 | -38.29501 | 4155 ft | 177 kts | 40° |
| 2026-04-21 14:42 | -7.96483 | -38.28732 | 4347 ft | 179 kts | 41° |
| 2026-04-21 14:43 | -7.95505 | -38.27944 | 4568 ft | 180 kts | 41° |
| 2026-04-21 14:43 | -7.94522 | -38.27165 | 4776 ft | 180 kts | 41° |
| 2026-04-21 14:43 | -7.93536 | -38.26382 | 4992 ft | 180 kts | 41° |
| 2026-04-21 14:43 | -7.92561 | -38.25596 | 5191 ft | 180 kts | 41° |
| 2026-04-21 14:44 | -7.91566 | -38.24811 | 5405 ft | 183 kts | 40° |
| 2026-04-21 14:44 | -7.90565 | -38.24017 | 5611 ft | 183 kts | 42° |
| 2026-04-21 14:44 | -7.89571 | -38.23218 | 5801 ft | 183 kts | 41° |
| 2026-04-21 14:44 | -7.88568 | -38.22413 | 5958 ft | 184 kts | 40° |
| 2026-04-21 14:45 | -7.86563 | -38.20827 | 6338 ft | 183 kts | 40° |
| 2026-04-21 14:45 | -7.85567 | -38.20033 | 6475 ft | 182 kts | 41° |
| 2026-04-21 14:45 | -7.84574 | -38.19249 | 6632 ft | 181 kts | 40° |
| 2026-04-21 14:46 | -7.83585 | -38.18457 | 6801 ft | 181 kts | 41° |
| 2026-04-21 14:46 | -7.82603 | -38.17668 | 6977 ft | 184 kts | 41° |
| 2026-04-21 14:46 | -7.81594 | -38.16863 | 7175 ft | 185 kts | 41° |
| 2026-04-21 14:46 | -7.80573 | -38.16049 | 7246 ft | 194 kts | 41° |
| 2026-04-21 14:47 | -7.79480 | -38.15189 | 7245 ft | 203 kts | 40° |
| 2026-04-21 14:47 | -7.78360 | -38.14301 | 7266 ft | 207 kts | 41° |
| 2026-04-21 14:47 | -7.77229 | -38.13392 | 7315 ft | 208 kts | 41° |
| 2026-04-21 14:47 | -7.76090 | -38.12490 | 7385 ft | 208 kts | 41° |
| 2026-04-21 14:48 | -7.74959 | -38.11586 | 7468 ft | 206 kts | 40° |
| 2026-04-21 14:48 | -7.73840 | -38.10704 | 7488 ft | 209 kts | 40° |
| 2026-04-21 14:48 | -7.72692 | -38.09799 | 7480 ft | 210 kts | 40° |
| 2026-04-21 14:48 | -7.71541 | -38.08889 | 7485 ft | 210 kts | 40° |
| 2026-04-21 14:49 | -7.70393 | -38.07979 | 7486 ft | 210 kts | 40° |
| 2026-04-21 14:49 | -7.69250 | -38.07062 | 7479 ft | 210 kts | 41° |
| 2026-04-21 14:49 | -7.68107 | -38.06148 | 7489 ft | 210 kts | 41° |
| 2026-04-21 14:49 | -7.66955 | -38.05235 | 7474 ft | 211 kts | 40° |
| 2026-04-21 14:50 | -7.66189 | -38.04633 | 7478 ft | 211 kts | 40° |
| 2026-04-21 14:50 | -7.64648 | -38.03408 | 7479 ft | 210 kts | 40° |
| 2026-04-21 14:50 | -7.63499 | -38.02494 | 7480 ft | 211 kts | 41° |
| 2026-04-21 14:50 | -7.62359 | -38.01585 | 7474 ft | 211 kts | 41° |
| 2026-04-21 14:51 | -7.61207 | -38.00681 | 7485 ft | 210 kts | 40° |
| 2026-04-21 14:51 | -7.60063 | -37.99767 | 7473 ft | 210 kts | 41° |
| 2026-04-21 14:51 | -7.58920 | -37.98853 | 7484 ft | 210 kts | 41° |
| 2026-04-21 14:51 | -7.57771 | -37.97938 | 7474 ft | 210 kts | 41° |
| 2026-04-21 14:52 | -7.56623 | -37.97026 | 7476 ft | 210 kts | 41° |
| 2026-04-21 14:52 | -7.55475 | -37.96111 | 7473 ft | 211 kts | 41° |
| 2026-04-21 14:52 | -7.54322 | -37.95198 | 7473 ft | 211 kts | 40° |
| 2026-04-21 14:52 | -7.53164 | -37.94286 | 7475 ft | 211 kts | 40° |
| 2026-04-21 14:53 | -7.52008 | -37.93372 | 7470 ft | 211 kts | 40° |
| 2026-04-21 14:53 | -7.50862 | -37.92456 | 7480 ft | 210 kts | 40° |
| 2026-04-21 14:53 | -7.49713 | -37.91543 | 7477 ft | 210 kts | 41° |
| 2026-04-21 14:53 | -7.48564 | -37.90620 | 7469 ft | 212 kts | 41° |
| 2026-04-21 14:54 | -7.47402 | -37.89709 | 7468 ft | 211 kts | 40° |
| 2026-04-21 14:54 | -7.46266 | -37.88812 | 7476 ft | 210 kts | 40° |
| 2026-04-21 14:54 | -7.45120 | -37.87896 | 7467 ft | 210 kts | 40° |
| 2026-04-21 14:54 | -7.43966 | -37.86980 | 7471 ft | 211 kts | 41° |
| 2026-04-21 14:55 | -7.42815 | -37.86063 | 7473 ft | 211 kts | 40° |
| 2026-04-21 14:55 | -7.41660 | -37.85152 | 7466 ft | 211 kts | 41° |
| 2026-04-21 14:55 | -7.40507 | -37.84235 | 7467 ft | 211 kts | 40° |
| 2026-04-21 14:55 | -7.39743 | -37.83629 | 7471 ft | 211 kts | 41° |
| 2026-04-21 14:56 | -7.38591 | -37.82716 | 7474 ft | 211 kts | 40° |
| 2026-04-21 14:56 | -7.37445 | -37.81804 | 7465 ft | 209 kts | 40° |
| 2026-04-21 14:56 | -7.36303 | -37.80907 | 7468 ft | 208 kts | 40° |
| 2026-04-21 14:56 | -7.34796 | -37.79709 | 7473 ft | 209 kts | 41° |
| 2026-04-21 14:57 | -7.34024 | -37.79093 | 7467 ft | 210 kts | 40° |
| 2026-04-21 14:57 | -7.32875 | -37.78186 | 7472 ft | 210 kts | 41° |
| 2026-04-21 14:57 | -7.31729 | -37.77273 | 7471 ft | 210 kts | 41° |
| 2026-04-21 14:57 | -7.30583 | -37.76360 | 7466 ft | 210 kts | 40° |
| 2026-04-21 14:58 | -7.29449 | -37.75461 | 7464 ft | 210 kts | 40° |
| 2026-04-21 14:58 | -7.28299 | -37.74551 | 7463 ft | 210 kts | 40° |
| 2026-04-21 14:58 | -7.27149 | -37.73644 | 7467 ft | 210 kts | 40° |
| 2026-04-21 14:58 | -7.25998 | -37.72731 | 7460 ft | 210 kts | 40° |
| 2026-04-21 14:59 | -7.24849 | -37.71818 | 7469 ft | 210 kts | 40° |
| 2026-04-21 14:59 | -7.23702 | -37.70909 | 7464 ft | 210 kts | 40° |
| 2026-04-21 14:59 | -7.22552 | -37.69999 | 7463 ft | 210 kts | 40° |
| 2026-04-21 14:59 | -7.21403 | -37.69088 | 7462 ft | 210 kts | 40° |
| 2026-04-21 15:00 | -7.20252 | -37.68176 | 7460 ft | 210 kts | 40° |
| 2026-04-21 15:00 | -7.19104 | -37.67264 | 7467 ft | 210 kts | 41° |
| 2026-04-21 15:00 | -7.17954 | -37.66352 | 7460 ft | 211 kts | 40° |
| 2026-04-21 15:00 | -7.16803 | -37.65443 | 7459 ft | 210 kts | 40° |
| 2026-04-21 15:01 | -7.15655 | -37.64533 | 7459 ft | 210 kts | 41° |
| 2026-04-21 15:01 | -7.14506 | -37.63621 | 7461 ft | 210 kts | 40° |
| 2026-04-21 15:01 | -7.13354 | -37.62710 | 7453 ft | 211 kts | 40° |
| 2026-04-21 15:01 | -7.12216 | -37.61811 | 7461 ft | 211 kts | 40° |
| 2026-04-21 15:02 | -7.11064 | -37.60897 | 7463 ft | 211 kts | 40° |
| 2026-04-21 15:02 | -7.09911 | -37.59985 | 7467 ft | 210 kts | 40° |
| 2026-04-21 15:02 | -7.08758 | -37.59069 | 7465 ft | 211 kts | 40° |
| 2026-04-21 15:02 | -7.07602 | -37.58153 | 7461 ft | 211 kts | 40° |
| 2026-04-21 15:03 | -7.06448 | -37.57239 | 7455 ft | 211 kts | 40° |
| 2026-04-21 15:03 | -7.05294 | -37.56327 | 7458 ft | 210 kts | 40° |
| 2026-04-21 15:03 | -7.04156 | -37.55426 | 7456 ft | 210 kts | 40° |
| 2026-04-21 15:03 | -7.03007 | -37.54516 | 7450 ft | 210 kts | 40° |
| 2026-04-21 15:04 | -7.01857 | -37.53605 | 7457 ft | 211 kts | 40° |
| 2026-04-21 15:04 | -7.00707 | -37.52695 | 7456 ft | 210 kts | 40° |
| 2026-04-21 15:04 | -6.99558 | -37.51786 | 7456 ft | 210 kts | 40° |
| 2026-04-21 15:04 | -6.98410 | -37.50879 | 7460 ft | 210 kts | 40° |
| 2026-04-21 15:05 | -6.97263 | -37.49969 | 7450 ft | 210 kts | 40° |
| 2026-04-21 15:05 | -6.94962 | -37.48149 | 7452 ft | 210 kts | 40° |
| 2026-04-21 15:05 | -6.93812 | -37.47241 | 7450 ft | 210 kts | 40° |
| 2026-04-21 15:06 | -6.92663 | -37.46330 | 7450 ft | 210 kts | 40° |
| 2026-04-21 15:06 | -6.91514 | -37.45420 | 7452 ft | 210 kts | 40° |
| 2026-04-21 15:06 | -6.90363 | -37.44510 | 7452 ft | 210 kts | 40° |
| 2026-04-21 15:06 | -6.89211 | -37.43598 | 7454 ft | 210 kts | 40° |
| 2026-04-21 15:07 | -6.88063 | -37.42689 | 7452 ft | 210 kts | 40° |
| 2026-04-21 15:07 | -6.86911 | -37.41780 | 7452 ft | 210 kts | 40° |
| 2026-04-21 15:07 | -6.85760 | -37.40871 | 7449 ft | 211 kts | 40° |
| 2026-04-21 15:07 | -6.84606 | -37.39959 | 7451 ft | 211 kts | 40° |
| 2026-04-21 15:08 | -6.83455 | -37.39047 | 7453 ft | 211 kts | 40° |
| 2026-04-21 15:08 | -6.82327 | -37.38148 | 7444 ft | 206 kts | 40° |
| 2026-04-21 15:08 | -6.81201 | -37.37255 | 7175 ft | 213 kts | 40° |
| 2026-04-21 15:08 | -6.80007 | -37.36309 | 6798 ft | 224 kts | 40° |
| 2026-04-21 15:09 | -6.78764 | -37.35325 | 6467 ft | 229 kts | 40° |
| 2026-04-21 15:09 | -6.77514 | -37.34339 | 6228 ft | 228 kts | 40° |
| 2026-04-21 15:09 | -6.76267 | -37.33358 | 5989 ft | 227 kts | 40° |
| 2026-04-21 15:09 | -6.75024 | -37.32374 | 5756 ft | 227 kts | 40° |
| 2026-04-21 15:10 | -6.73787 | -37.31394 | 5537 ft | 226 kts | 40° |
| 2026-04-21 15:10 | -6.72545 | -37.30414 | 5312 ft | 227 kts | 40° |
| 2026-04-21 15:10 | -6.71299 | -37.29430 | 5043 ft | 229 kts | 40° |
| 2026-04-21 15:10 | -6.70045 | -37.28440 | 4789 ft | 229 kts | 40° |
| 2026-04-21 15:11 | -6.68806 | -37.27462 | 4557 ft | 229 kts | 39° |
| 2026-04-21 15:11 | -6.67557 | -37.26476 | 4327 ft | 228 kts | 40° |
| 2026-04-21 15:11 | -6.66294 | -37.25477 | 4113 ft | 228 kts | 40° |
| 2026-04-21 15:11 | -6.65064 | -37.24498 | 3909 ft | 228 kts | 40° |
| 2026-04-21 15:12 | -6.63814 | -37.23515 | 3725 ft | 227 kts | 40° |
| 2026-04-21 15:12 | -6.62574 | -37.22533 | 3529 ft | 226 kts | 40° |
| 2026-04-21 15:12 | -6.61337 | -37.21556 | 3320 ft | 226 kts | 39° |
| 2026-04-21 15:12 | -6.60095 | -37.20583 | 3145 ft | 226 kts | 39° |
| 2026-04-21 15:13 | -6.58858 | -37.19603 | 2958 ft | 226 kts | 39° |
| 2026-04-21 15:13 | -6.57614 | -37.18624 | 2720 ft | 227 kts | 40° |
| 2026-04-21 15:13 | -6.56375 | -37.17637 | 2498 ft | 228 kts | 40° |
| 2026-04-21 15:13 | -6.55131 | -37.16652 | 2299 ft | 227 kts | 39° |
| 2026-04-21 15:14 | -6.53889 | -37.15679 | 2085 ft | 226 kts | 39° |
| 2026-04-21 15:14 | -6.52654 | -37.14707 | 1846 ft | 225 kts | 39° |
| 2026-04-21 15:14 | -6.51441 | -37.13749 | 1776 ft | 217 kts | 40° |
| 2026-04-21 15:14 | -6.50266 | -37.12817 | 1726 ft | 212 kts | 39° |
| 2026-04-21 15:15 | -6.49110 | -37.11904 | 1666 ft | 210 kts | 39° |
| 2026-04-21 15:15 | -6.47959 | -37.10999 | 1595 ft | 210 kts | 39° |
| 2026-04-21 15:15 | -6.46814 | -37.10094 | 1514 ft | 208 kts | 40° |
| 2026-04-21 15:15 | -6.45682 | -37.09205 | 1471 ft | 205 kts | 39° |
| 2026-04-21 15:16 | -6.44588 | -37.08341 | 1408 ft | 198 kts | 39° |
| 2026-04-21 15:16 | -6.43490 | -37.07549 | 1258 ft | 188 kts | 34° |
| 2026-04-21 15:16 | -6.42344 | -37.07042 | 1263 ft | 172 kts | 6° |
| 2026-04-21 15:16 | -6.41265 | -37.07373 | 1319 ft | 165 kts | 315° |
| 2026-04-21 15:17 | -6.40761 | -37.08384 | 1344 ft | 163 kts | 295° |
| 2026-04-21 15:17 | -6.40144 | -37.09337 | 1339 ft | 165 kts | 304° |
| 2026-04-21 15:17 | -6.39533 | -37.10305 | 1290 ft | 164 kts | 298° |
| 2026-04-21 15:17 | -6.39279 | -37.11387 | 1300 ft | 159 kts | 263° |
| 2026-04-21 15:18 | -6.39806 | -37.12288 | 1359 ft | 148 kts | 213° |
| 2026-04-21 15:18 | -6.40765 | -37.12478 | 1334 ft | 146 kts | 164° |
| 2026-04-21 15:18 | -6.41473 | -37.11785 | 996 ft | 146 kts | 102° |
| 2026-04-21 15:18 | -6.41829 | -37.10932 | 920 ft | 123 kts | 131° |
| 2026-04-21 15:19 | -6.42342 | -37.10305 | 842 ft | 117 kts | 119° |
| 2026-04-21 15:19 | -6.42897 | -37.09780 | 822 ft | 107 kts | 148° |
| 2026-04-21 15:19 | -6.43294 | -37.09194 | 799 ft | 106 kts | 107° |
| 2026-04-21 15:19 | -6.43583 | -37.08515 | 731 ft | 102 kts | 116° |
| 2026-04-21 15:20 | -6.43681 | -37.08305 | 669 ft | 0 kts | 118° |